Time;durP1;ratioP1;P1;durP2;ratioP2;P2;SDS_P1;SDS_P2;PMS_P1;PMS_P2;Temp;Humidity;BMP_temperature;BMP_pressure;BME280_temperature;BME280_humidity;BME280_pressure;Samples;Min_cycle;Max_cycle;Signal;HPM_P1;HPM_P2
2022/03/15 00:00:33;;;;;;;24.33;12.15;;;;;;;5.26;83.21;102721.16;4986336;28;20070;-67
2022/03/15 00:02:58;;;;;;;22.90;12.77;;;;;;;5.25;82.82;102717.56;4980763;28;20053;-70
2022/03/15 00:05:24;;;;;;;19.75;11.02;;;;;;;5.25;82.29;102716.69;4988274;28;20105;-66
2022/03/15 00:07:50;;;;;;;23.40;11.48;;;;;;;5.21;82.50;102707.75;5003530;28;20032;-70
2022/03/15 00:10:16;;;;;;;28.83;11.48;;;;;;;5.18;82.51;102706.97;5002429;28;20038;-69
2022/03/15 00:12:43;;;;;;;21.73;12.15;;;;;;;5.17;82.93;102705.16;4988115;28;20057;-65
2022/03/15 00:15:10;;;;;;;22.02;10.82;;;;;;;5.14;82.30;102703.44;5004199;28;20137;-70
2022/03/15 00:17:40;;;;;;;20.52;10.80;;;;;;;5.14;82.83;102702.53;4987801;28;20529;-67
2022/03/15 00:20:09;;;;;;;22.40;10.90;;;;;;;5.10;84.48;102699.00;4974015;28;20061;-71
2022/03/15 00:22:37;;;;;;;26.38;12.38;;;;;;;5.09;82.94;102703.53;5002085;28;20092;-65
2022/03/15 00:25:05;;;;;;;25.02;12.70;;;;;;;5.09;84.07;102686.44;4982472;28;20042;-65
2022/03/15 00:27:31;;;;;;;43.13;18.90;;;;;;;5.11;85.94;102690.88;4994246;28;20171;-65
2022/03/15 00:29:56;;;;;;;30.38;15.93;;;;;;;5.16;85.43;102689.91;4983845;28;20067;-66
2022/03/15 00:32:23;;;;;;;25.33;14.10;;;;;;;5.17;84.46;102694.38;4970770;28;20038;-65
2022/03/15 00:34:48;;;;;;;38.55;16.75;;;;;;;5.19;85.86;102698.81;4975499;28;20130;-71
2022/03/15 00:37:14;;;;;;;33.15;16.05;;;;;;;5.21;85.74;102701.47;5008416;28;20042;-65
2022/03/15 00:39:41;;;;;;;26.90;14.25;;;;;;;5.21;84.79;102698.78;4990793;28;20482;-70
2022/03/15 00:42:07;;;;;;;35.40;15.07;;;;;;;5.18;84.38;102698.88;4988935;28;20042;-71
2022/03/15 00:44:32;;;;;;;26.92;13.77;;;;;;;5.15;85.01;102697.09;5008345;28;20040;-66
2022/03/15 00:46:57;;;;;;;27.60;15.05;;;;;;;5.14;84.38;102691.75;4990724;28;20076;-66
2022/03/15 00:49:23;;;;;;;32.38;14.13;;;;;;;5.07;84.57;102691.84;4990531;28;20056;-65
2022/03/15 00:51:52;;;;;;;28.05;13.10;;;;;;;5.06;83.28;102690.09;4987875;28;20026;-66
2022/03/15 00:54:17;;;;;;;25.67;12.45;;;;;;;5.09;83.81;102681.06;4986684;28;20149;-70
2022/03/15 00:56:43;;;;;;;22.48;13.00;;;;;;;5.09;83.31;102686.44;4987046;28;20038;-71
2022/03/15 00:59:09;;;;;;;27.10;13.63;;;;;;;5.08;82.96;102687.34;4988478;28;20523;-66
2022/03/15 01:01:36;;;;;;;28.98;13.20;;;;;;;5.08;82.92;102682.88;4987542;28;20085;-71
2022/03/15 01:04:02;;;;;;;24.17;13.98;;;;;;;5.08;82.84;102679.25;4969399;28;20102;-70
2022/03/15 01:06:28;;;;;;;26.95;13.20;;;;;;;5.07;82.50;102672.97;4987367;28;20036;-70
2022/03/15 01:08:53;;;;;;;25.60;12.15;;;;;;;5.07;82.31;102683.75;4988918;28;20450;-69
2022/03/15 01:11:19;;;;;;;26.67;13.20;;;;;;;5.07;82.84;102683.75;4985014;28;20046;-70
2022/03/15 01:13:44;;;;;;;28.70;13.48;;;;;;;5.07;83.20;102681.06;4987394;28;20062;-70
2022/03/15 01:16:09;;;;;;;27.20;14.18;;;;;;;5.08;83.94;102684.66;4971115;28;20043;-70
2022/03/15 01:18:35;;;;;;;26.63;13.85;;;;;;;5.06;83.66;102684.69;4970371;28;20035;-66
2022/03/15 01:21:00;;;;;;;30.73;13.85;;;;;;;5.09;83.73;102686.44;4996211;28;20811;-66
2022/03/15 01:23:26;;;;;;;29.10;13.80;;;;;;;5.10;84.42;102693.63;5007018;28;20022;-65
2022/03/15 01:25:51;;;;;;;25.50;14.10;;;;;;;5.08;84.16;102682.88;4992697;28;20406;-71
2022/03/15 01:28:17;;;;;;;33.13;13.75;;;;;;;5.08;84.81;102676.56;5003880;28;20383;-66
2022/03/15 01:30:42;;;;;;;24.05;13.10;;;;;;;5.09;83.98;102675.66;4996911;28;20041;-67
2022/03/15 01:33:08;;;;;;;25.35;13.95;;;;;;;5.09;83.83;102664.88;4998227;28;20492;-65
2022/03/15 01:35:35;;;;;;;32.83;13.20;;;;;;;5.09;83.99;102667.56;4986421;28;20034;-69
2022/03/15 01:38:00;;;;;;;37.22;16.63;;;;;;;5.10;84.78;102664.81;4992002;28;20045;-65
2022/03/15 01:40:26;;;;;;;32.65;16.98;;;;;;;5.11;84.77;102657.63;4962363;28;20042;-64
2022/03/15 01:42:52;;;;;;;32.58;13.90;;;;;;;5.09;84.37;102654.97;4997747;28;20034;-65
2022/03/15 01:45:17;;;;;;;22.33;13.05;;;;;;;5.09;83.27;102656.78;5006809;28;20152;-66
2022/03/15 01:47:43;;;;;;;21.27;12.63;;;;;;;5.07;83.15;102659.47;4993868;28;20079;-71
2022/03/15 01:50:09;;;;;;;28.95;14.70;;;;;;;5.06;83.42;102654.13;4989938;28;20371;-71
2022/03/15 01:52:34;;;;;;;25.88;13.52;;;;;;;5.05;83.70;102655.06;4991876;28;20037;-66
2022/03/15 01:55:00;;;;;;;27.27;14.32;;;;;;;5.02;84.87;102649.72;5001326;28;20041;-66
2022/03/15 01:57:25;;;;;;;36.80;17.10;;;;;;;4.96;86.58;102645.34;4988675;28;20046;-65
2022/03/15 01:59:52;;;;;;;34.38;15.77;;;;;;;4.92;86.26;102640.91;4985559;28;20040;-65
2022/03/15 02:02:18;;;;;;;32.78;18.20;;;;;;;4.93;86.75;102640.00;4997394;28;20037;-65
2022/03/15 02:04:43;;;;;;;29.63;14.82;;;;;;;4.91;85.34;102640.97;4997929;28;20042;-66
2022/03/15 02:07:13;;;;;;;28.30;13.55;;;;;;;4.88;84.66;102635.63;4997446;28;20493;-70
2022/03/15 02:09:40;;;;;;;28.85;13.68;;;;;;;4.86;84.41;102644.63;5000996;28;20037;-71
2022/03/15 02:12:06;;;;;;;27.58;14.68;;;;;;;4.89;84.00;102642.78;4978936;28;20054;-65
2022/03/15 02:14:33;;;;;;;31.02;15.35;;;;;;;4.92;85.04;102646.31;5001152;28;20092;-65
2022/03/15 02:16:58;;;;;;;25.15;13.05;;;;;;;4.91;84.49;102641.84;4976351;28;20439;-71
2022/03/15 02:19:24;;;;;;;30.73;13.38;;;;;;;4.88;84.28;102631.13;4975079;28;20126;-68
2022/03/15 02:21:50;;;;;;;29.08;13.88;;;;;;;4.87;84.66;102634.72;4991963;28;20037;-70
2022/03/15 02:24:16;;;;;;;25.70;13.10;;;;;;;4.81;85.04;102624.97;5007262;28;20464;-71
2022/03/15 02:26:42;;;;;;;23.27;14.05;;;;;;;4.82;84.29;102626.72;4986379;28;20160;-70
2022/03/15 02:29:07;;;;;;;25.30;13.93;;;;;;;4.81;84.55;102624.09;4993007;28;20637;-71
2022/03/15 02:31:34;;;;;;;27.35;13.95;;;;;;;4.78;85.69;102616.03;4994177;28;20030;-65
2022/03/15 02:34:00;;;;;;;27.55;14.23;;;;;;;4.77;84.94;102617.84;4993115;28;20049;-70
2022/03/15 02:36:25;;;;;;;28.90;15.18;;;;;;;4.77;84.79;102611.56;5002853;28;20026;-70
2022/03/15 02:38:51;;;;;;;28.15;14.18;;;;;;;4.75;85.28;102610.69;5007738;28;20061;-65
2022/03/15 02:41:16;;;;;;;25.40;13.60;;;;;;;4.75;85.54;102611.59;4988558;28;20367;-66
2022/03/15 02:43:44;;;;;;;26.70;14.35;;;;;;;4.77;84.91;102608.88;5003762;28;20033;-64
2022/03/15 02:46:09;;;;;;;23.67;13.85;;;;;;;4.76;84.17;102608.00;4993460;28;20034;-65
2022/03/15 02:48:35;;;;;;;27.02;14.02;;;;;;;4.79;84.44;102607.03;5005596;28;20026;-65
2022/03/15 02:51:08;;;;;;;27.73;14.32;;;;;;;4.80;84.64;102607.03;5008753;28;20033;-71
2022/03/15 02:53:36;;;;;;;31.13;14.95;;;;;;;4.81;85.66;102608.78;5010308;28;20542;-66
2022/03/15 02:56:02;;;;;;;30.67;15.10;;;;;;;4.80;85.50;102603.41;4999002;28;20471;-66
2022/03/15 02:58:27;;;;;;;28.77;15.02;;;;;;;4.79;85.52;102597.13;5001406;28;20041;-69
2022/03/15 03:00:53;;;;;;;26.67;14.73;;;;;;;4.81;84.74;102594.41;5007111;28;20486;-66
2022/03/15 03:03:18;;;;;;;31.42;14.52;;;;;;;4.81;85.27;102586.34;4970523;28;20066;-66
2022/03/15 03:05:43;;;;;;;26.65;15.10;;;;;;;4.84;85.06;102584.44;5009880;28;20548;-66
2022/03/15 03:08:10;;;;;;;29.35;14.60;;;;;;;4.87;85.99;102580.81;4989217;28;20030;-66
2022/03/15 03:10:36;;;;;;;29.38;14.77;;;;;;;4.84;85.61;102570.06;5003615;28;20069;-71
2022/03/15 03:13:02;;;;;;;25.63;14.13;;;;;;;4.83;85.43;102569.19;4988823;28;20030;-72
2022/03/15 03:15:29;;;;;;;26.92;14.00;;;;;;;4.81;84.75;102564.75;4987540;28;20034;-66
2022/03/15 03:17:54;;;;;;;27.60;14.10;;;;;;;4.78;84.55;102560.31;4977387;28;20051;-70
2022/03/15 03:20:21;;;;;;;24.25;13.05;;;;;;;4.79;84.22;102574.66;4992218;28;20038;-71
2022/03/15 03:22:50;;;;;;;23.27;13.00;;;;;;;4.79;84.54;102566.59;4985635;28;20503;-67
2022/03/15 03:25:16;;;;;;;23.75;13.80;;;;;;;4.77;84.83;102563.03;5010065;28;20034;-71
2022/03/15 03:27:42;;;;;;;23.52;13.27;;;;;;;4.76;84.27;102562.16;5002330;28;20045;-71
2022/03/15 03:30:08;;;;;;;24.90;13.43;;;;;;;4.73;84.57;102554.13;4995557;28;20490;-65
2022/03/15 03:32:34;;;;;;;24.63;12.90;;;;;;;4.73;84.09;102553.25;5004683;28;20093;-70
2022/03/15 03:35:04;;;;;;;26.23;13.15;;;;;;;4.72;84.97;102554.16;4993601;28;20029;-66
2022/03/15 03:37:30;;;;;;;31.98;13.55;;;;;;;4.69;84.65;102557.81;5009348;28;20061;-65
2022/03/15 03:39:55;;;;;;;20.00;13.07;;;;;;;4.69;84.45;102563.19;5008886;28;20392;-72
2022/03/15 03:42:21;;;;;;;22.33;12.45;;;;;;;4.70;84.92;102561.38;5001966;28;20042;-66
2022/03/15 03:44:46;;;;;;;23.33;12.95;;;;;;;4.70;84.99;102553.28;5002587;28;20074;-65
2022/03/15 03:47:12;;;;;;;23.20;13.55;;;;;;;4.68;85.30;102557.84;4999663;28;20041;-65
2022/03/15 03:49:38;;;;;;;23.77;12.43;;;;;;;4.67;85.43;102559.66;5005870;28;20042;-65
2022/03/15 03:52:05;;;;;;;25.75;13.45;;;;;;;4.68;85.05;102563.22;4972567;28;20089;-65
2022/03/15 03:54:32;;;;;;;20.88;12.65;;;;;;;4.65;85.26;102560.59;4975419;28;20384;-70
2022/03/15 03:56:57;;;;;;;26.20;12.90;;;;;;;4.65;85.24;102557.91;4996606;28;20060;-70
2022/03/15 03:59:23;;;;;;;24.83;13.32;;;;;;;4.63;85.50;102554.34;5003808;28;20042;-65
2022/03/15 04:01:49;;;;;;;25.55;12.82;;;;;;;4.60;85.50;102556.16;4987785;28;20031;-66
2022/03/15 04:04:14;;;;;;;23.83;13.15;;;;;;;4.59;85.70;102556.22;5000544;28;20406;-66
2022/03/15 04:06:40;;;;;;;22.15;12.68;;;;;;;4.57;85.02;102558.06;5008803;28;20065;-65
2022/03/15 04:09:07;;;;;;;21.52;11.88;;;;;;;4.58;86.19;102547.25;5000622;28;20037;-70
2022/03/15 04:11:32;;;;;;;23.05;13.05;;;;;;;4.58;86.30;102552.63;4978953;28;20049;-72
2022/03/15 04:14:03;;;;;;;26.95;13.60;;;;;;;4.57;86.04;102555.38;5003400;28;20113;-71
2022/03/15 04:16:30;;;;;;;28.48;14.82;;;;;;;4.54;86.02;102556.31;4970094;28;20038;-66
2022/03/15 04:18:55;;;;;;;25.60;13.07;;;;;;;4.56;86.16;102557.16;4976014;28;20050;-71
2022/03/15 04:21:24;;;;;;;29.17;13.00;;;;;;;4.54;85.88;102552.72;4999598;28;20034;-66
2022/03/15 04:23:54;;;;;;;23.60;12.48;;;;;;;4.54;85.66;102559.00;5007879;28;20389;-67
2022/03/15 04:26:20;;;;;;;20.23;12.75;;;;;;;4.52;85.39;102555.47;4999317;28;20037;-65
2022/03/15 04:28:46;;;;;;;20.95;13.10;;;;;;;4.54;85.76;102556.31;4983497;28;20030;-71
2022/03/15 04:31:11;;;;;;;24.85;13.27;;;;;;;4.54;86.18;102555.41;4977366;28;20038;-72
2022/03/15 04:33:37;;;;;;;28.90;14.10;;;;;;;4.52;85.86;102557.25;5000328;28;20077;-71
2022/03/15 04:36:03;;;;;;;23.10;12.98;;;;;;;4.56;85.32;102561.66;5002392;28;20034;-66
2022/03/15 04:38:28;;;;;;;21.58;13.43;;;;;;;4.56;85.71;102565.22;5003495;28;20043;-70
2022/03/15 04:40:54;;;;;;;22.38;12.18;;;;;;;4.56;85.98;102557.16;4992918;28;20031;-69
2022/03/15 04:43:19;;;;;;;22.00;11.60;;;;;;;4.56;84.97;102550.88;4987147;28;20034;-67
2022/03/15 04:45:44;;;;;;;23.83;12.80;;;;;;;4.56;84.88;102545.47;4981471;28;20038;-70
2022/03/15 04:48:10;;;;;;;19.95;12.35;;;;;;;4.54;84.89;102550.03;4990784;28;20034;-66
2022/03/15 04:50:35;;;;;;;21.92;11.68;;;;;;;4.50;85.17;102546.50;5006440;28;20041;-65
2022/03/15 04:53:01;;;;;;;22.42;12.07;;;;;;;4.48;85.55;102551.03;4979429;28;20030;-71
2022/03/15 04:55:26;;;;;;;25.38;12.10;;;;;;;4.48;84.85;102550.16;5006976;28;20116;-65
2022/03/15 04:57:52;;;;;;;22.70;12.98;;;;;;;4.47;85.37;102543.84;4998497;28;20373;-65
2022/03/15 05:00:18;;;;;;;22.60;13.02;;;;;;;4.47;84.82;102543.84;4999476;28;20124;-71
2022/03/15 05:02:44;;;;;;;24.48;13.20;;;;;;;4.47;84.94;102541.16;4993469;28;20438;-66
2022/03/15 05:05:10;;;;;;;26.75;12.32;;;;;;;4.45;84.95;102536.75;4984634;28;20133;-72
2022/03/15 05:07:35;;;;;;;28.70;13.10;;;;;;;4.45;85.43;102532.22;4988432;28;20356;-72
2022/03/15 05:12:47;;;;;;;23.38;11.65;;;;;;;4.42;85.61;102529.59;4974949;28;20193;-65
2022/03/15 05:15:13;;;;;;;24.33;12.93;;;;;;;4.41;85.61;102532.31;4995794;28;20473;-66
2022/03/15 05:17:38;;;;;;;23.90;12.73;;;;;;;4.40;85.78;102531.44;4977775;28;20417;-71
2022/03/15 05:20:05;;;;;;;24.33;12.70;;;;;;;4.40;84.91;102527.88;4986161;28;20125;-72
2022/03/15 05:22:32;;;;;;;18.55;11.00;;;;;;;4.37;86.41;102528.78;4973453;28;20037;-68
2022/03/15 05:24:58;;;;;;;24.90;12.07;;;;;;;4.37;86.99;102530.59;4998450;28;20275;-70
2022/03/15 05:27:25;;;;;;;25.45;12.75;;;;;;;4.31;86.93;102519.03;4997919;28;20056;-70
2022/03/15 05:29:54;;;;;;;25.85;12.63;;;;;;;4.27;87.55;102520.00;4987518;28;20442;-67
2022/03/15 05:32:19;;;;;;;22.20;12.48;;;;;;;4.28;86.36;102528.97;5004714;28;20041;-70
2022/03/15 05:34:45;;;;;;;25.77;12.63;;;;;;;4.29;86.21;102526.28;4982465;28;20103;-72
2022/03/15 05:37:10;;;;;;;22.75;11.80;;;;;;;4.31;85.78;102528.91;4992576;28;20057;-66
2022/03/15 05:39:36;;;;;;;25.00;10.98;;;;;;;4.31;86.02;102524.41;5001799;28;19917;-71
2022/03/15 05:42:02;;;;;;;22.80;13.00;;;;;;;4.32;87.14;102519.91;4984611;28;20425;-65
2022/03/15 05:44:27;;;;;;;19.23;12.75;;;;;;;4.29;87.41;102511.88;5004498;28;20539;-68
2022/03/15 05:46:54;;;;;;;24.65;12.95;;;;;;;4.25;87.63;102510.19;5001298;28;20045;-66
2022/03/15 05:49:19;;;;;;;23.70;13.60;;;;;;;4.27;87.37;102511.91;4983336;28;20067;-72
2022/03/15 05:51:45;;;;;;;22.35;12.50;;;;;;;4.24;86.71;102512.00;5002158;28;20076;-72
2022/03/15 05:54:10;;;;;;;22.83;13.48;;;;;;;4.24;87.36;102506.63;4987685;28;20052;-65
2022/03/15 05:56:36;;;;;;;21.90;12.25;;;;;;;4.24;87.00;102506.63;4995604;28;20046;-72
2022/03/15 05:59:01;;;;;;;23.35;11.77;;;;;;;4.23;87.29;102498.53;5004476;28;20034;-72
2022/03/15 06:01:26;;;;;;;25.42;12.32;;;;;;;4.24;87.82;102501.22;5000218;28;20041;-72
2022/03/15 06:03:53;;;;;;;21.83;12.13;;;;;;;4.25;87.40;102496.72;5002357;28;20077;-69
2022/03/15 06:06:20;;;;;;;19.40;11.20;;;;;;;4.24;87.13;102503.00;5005939;28;20425;-66
2022/03/15 06:08:45;;;;;;;28.17;14.20;;;;;;;4.25;87.01;102503.00;4981477;28;20048;-66
2022/03/15 06:11:12;;;;;;;29.45;13.95;;;;;;;4.28;87.71;102499.34;4988199;28;20046;-65
2022/03/15 06:13:38;;;;;;;19.80;12.23;;;;;;;4.28;87.30;102500.22;4986589;28;20442;-72
2022/03/15 06:16:03;;;;;;;22.80;12.50;;;;;;;4.29;87.24;102504.72;4983226;28;20041;-70
2022/03/15 06:18:29;;;;;;;19.92;11.95;;;;;;;4.33;87.62;102500.13;4979537;28;20039;-71
2022/03/15 06:20:54;;;;;;;21.35;12.00;;;;;;;4.35;87.58;102493.81;4986904;28;20042;-68
2022/03/15 06:23:21;;;;;;;21.50;12.05;;;;;;;4.39;86.89;102489.25;5000700;28;20118;-66
2022/03/15 06:25:46;;;;;;;22.05;12.00;;;;;;;4.41;86.89;102494.59;4971953;28;20069;-71
2022/03/15 06:28:12;;;;;;;16.27;10.75;;;;;;;4.43;85.87;102498.13;4990068;28;20034;-66
2022/03/15 06:30:37;;;;;;;20.70;10.98;;;;;;;4.45;85.87;102494.50;4994864;28;20085;-66
2022/03/15 06:33:03;;;;;;;16.65;11.07;;;;;;;4.47;86.23;102497.16;5017579;28;20113;-71
2022/03/15 06:35:29;;;;;;;19.20;11.75;;;;;;;4.49;85.73;102492.66;4981015;28;20045;-72
2022/03/15 06:37:55;;;;;;;20.50;11.18;;;;;;;4.50;86.13;102487.22;4988969;28;20080;-72
2022/03/15 06:40:22;;;;;;;19.23;12.30;;;;;;;4.51;86.95;102486.28;4992043;28;20042;-65
2022/03/15 06:42:50;;;;;;;20.35;11.48;;;;;;;4.52;86.69;102485.41;4988443;28;20064;-65
2022/03/15 06:45:15;;;;;;;22.08;12.60;;;;;;;4.53;86.61;102480.88;4979562;28;20467;-65
2022/03/15 06:47:41;;;;;;;20.80;12.43;;;;;;;4.55;86.57;102479.03;4988429;28;20109;-66
2022/03/15 06:50:08;;;;;;;18.42;10.82;;;;;;;4.61;85.73;102479.78;4976807;28;20467;-70
2022/03/15 06:52:35;;;;;;;20.73;11.55;;;;;;;4.66;85.88;102478.78;4986085;28;20395;-66
2022/03/15 06:55:00;;;;;;;18.48;11.73;;;;;;;4.68;86.75;102472.47;4988185;28;20061;-66
2022/03/15 06:57:25;;;;;;;20.40;11.50;;;;;;;4.73;86.94;102478.63;4987920;28;20096;-70
2022/03/15 06:59:51;;;;;;;16.80;11.60;;;;;;;4.75;86.31;102476.78;4989152;28;20179;-72
2022/03/15 07:02:16;;;;;;;17.98;12.15;;;;;;;4.78;85.57;102476.72;4982295;28;20045;-66
2022/03/15 07:04:42;;;;;;;17.70;11.32;;;;;;;4.79;85.99;102477.59;4984161;28;20033;-71
2022/03/15 07:07:07;;;;;;;22.63;12.35;;;;;;;4.82;87.46;102473.03;4990178;28;20053;-71
2022/03/15 07:09:34;;;;;;;22.88;12.68;;;;;;;4.82;86.75;102473.03;4989258;28;20038;-66
2022/03/15 07:11:59;;;;;;;16.42;10.85;;;;;;;4.86;85.78;102477.44;4975963;28;20057;-66
2022/03/15 07:14:24;;;;;;;20.90;11.60;;;;;;;4.88;85.90;102473.81;4990614;28;20046;-72
2022/03/15 07:16:50;;;;;;;20.55;12.75;;;;;;;4.95;86.36;102475.47;4977034;28;20039;-71
2022/03/15 07:19:15;;;;;;;20.63;12.77;;;;;;;4.99;86.70;102475.38;4983872;28;20042;-67
2022/03/15 07:21:40;;;;;;;23.02;12.25;;;;;;;5.02;85.73;102475.28;4982190;28;20089;-66
2022/03/15 07:24:06;;;;;;;25.10;12.43;;;;;;;5.06;86.88;102468.00;4982335;28;20046;-71
2022/03/15 07:26:32;;;;;;;25.02;13.57;;;;;;;5.07;87.52;102464.38;4979227;28;20034;-70
2022/03/15 07:28:58;;;;;;;24.05;12.10;;;;;;;5.09;87.09;102468.84;4985634;28;20038;-72
2022/03/15 07:31:24;;;;;;;20.25;11.57;;;;;;;5.14;85.58;102467.84;4984814;28;20505;-68
2022/03/15 07:33:49;;;;;;;20.45;12.48;;;;;;;5.19;85.03;102464.09;4976668;28;20294;-65
2022/03/15 07:36:15;;;;;;;21.73;10.93;;;;;;;5.25;85.21;102463.06;4989896;28;20030;-70
2022/03/15 07:38:41;;;;;;;20.55;11.05;;;;;;;5.29;85.75;102459.38;4990232;28;20042;-70
2022/03/15 07:41:06;;;;;;;21.10;11.48;;;;;;;5.35;85.96;102465.50;4977650;28;20406;-68
2022/03/15 07:43:33;;;;;;;23.58;12.10;;;;;;;5.40;86.18;102456.41;4985026;28;20077;-65
2022/03/15 07:45:58;;;;;;;22.60;11.98;;;;;;;5.43;85.61;102457.22;4982854;28;20437;-69
2022/03/15 07:48:24;;;;;;;22.58;12.10;;;;;;;5.45;85.35;102455.34;4985658;28;20049;-69
2022/03/15 07:50:52;;;;;;;20.52;12.00;;;;;;;5.51;85.09;102452.50;4987790;28;20066;-66
2022/03/15 07:53:17;;;;;;;22.75;12.02;;;;;;;5.56;85.02;102449.69;4988242;28;20053;-68
2022/03/15 07:55:43;;;;;;;23.80;11.90;;;;;;;5.59;84.98;102457.69;4982162;28;20026;-72
2022/03/15 07:58:09;;;;;;;17.20;11.65;;;;;;;5.65;84.95;102460.25;4987860;28;20449;-67
2022/03/15 08:00:34;;;;;;;25.45;12.57;;;;;;;5.69;84.78;102467.34;4984608;28;20100;-70
2022/03/15 08:03:00;;;;;;;21.20;11.02;;;;;;;5.73;85.29;102449.25;4986257;28;20038;-72
2022/03/15 08:05:28;;;;;;;21.60;11.77;;;;;;;5.78;85.02;102455.41;4987177;28;20015;-72
2022/03/15 08:07:54;;;;;;;19.08;11.30;;;;;;;5.80;84.50;102446.34;4987488;28;20034;-66
2022/03/15 08:10:21;;;;;;;20.58;11.93;;;;;;;5.84;84.33;102448.03;4985802;28;20085;-72
2022/03/15 08:12:47;;;;;;;19.02;10.52;;;;;;;5.88;83.75;102448.84;4986419;28;20046;-70
2022/03/15 08:15:12;;;;;;;19.23;11.50;;;;;;;5.93;84.72;102441.53;4990367;28;20034;-70
2022/03/15 08:17:39;;;;;;;22.23;9.93;;;;;;;5.97;84.32;102442.31;4979807;28;20090;-66
2022/03/15 08:20:05;;;;;;;15.82;10.45;;;;;;;6.01;83.86;102435.91;4985013;28;20035;-65
2022/03/15 08:22:31;;;;;;;26.08;10.77;;;;;;;6.05;84.16;102426.78;4983522;28;20019;-66
2022/03/15 08:24:58;;;;;;;14.27;9.60;;;;;;;6.10;83.02;102427.53;4977785;28;20042;-70
2022/03/15 08:27:24;;;;;;;25.08;10.07;;;;;;;6.13;82.98;102430.16;4986714;28;20113;-68
2022/03/15 08:29:49;;;;;;;16.55;9.23;;;;;;;6.19;83.48;102429.97;4989607;28;20101;-65
2022/03/15 08:32:15;;;;;;;16.27;9.15;;;;;;;6.24;82.91;102425.31;4987979;28;20076;-65
2022/03/15 08:34:42;;;;;;;15.20;9.05;;;;;;;6.29;82.65;102426.06;4977018;28;20363;-65
2022/03/15 08:37:08;;;;;;;23.52;11.32;;;;;;;6.35;82.39;102420.50;4988752;28;20046;-71
2022/03/15 08:39:34;;;;;;;19.77;9.00;;;;;;;6.42;83.22;102431.13;4988229;28;20034;-65
2022/03/15 08:42:00;;;;;;;15.48;8.80;;;;;;;6.48;83.44;102429.16;4983968;28;20052;-72
2022/03/15 08:44:25;;;;;;;17.15;8.32;;;;;;;6.52;81.85;102427.22;4986420;28;20042;-67
2022/03/15 08:46:51;;;;;;;16.27;7.63;;;;;;;6.59;81.36;102434.22;4984882;28;20092;-65
2022/03/15 08:49:18;;;;;;;14.73;8.65;;;;;;;6.67;81.54;102421.38;4985980;28;20026;-66
2022/03/15 08:51:45;;;;;;;21.75;8.07;;;;;;;6.72;80.87;102415.81;4988253;28;20517;-65
2022/03/15 08:54:11;;;;;;;15.73;8.48;;;;;;;6.78;81.56;102413.78;4988236;28;20201;-65
2022/03/15 08:56:40;;;;;;;16.65;8.00;;;;;;;6.79;81.43;102407.44;4980853;28;20035;-68
2022/03/15 08:59:05;;;;;;;11.20;7.35;;;;;;;6.86;80.99;102408.16;4988717;28;20490;-72
2022/03/15 09:01:31;;;;;;;14.80;8.40;;;;;;;6.90;81.22;102408.00;4987279;28;20030;-66
2022/03/15 09:03:56;;;;;;;15.05;7.38;;;;;;;6.96;81.15;102408.75;4985211;28;20034;-67
2022/03/15 09:06:21;;;;;;;16.23;7.72;;;;;;;7.01;81.02;102404.06;4988707;28;20124;-66
2022/03/15 09:08:47;;;;;;;19.67;8.65;;;;;;;7.05;80.28;102398.50;4988246;28;20345;-65
2022/03/15 09:11:12;;;;;;;16.50;7.93;;;;;;;7.11;79.91;102402.81;4976377;28;20058;-71
2022/03/15 09:13:38;;;;;;;17.38;8.23;;;;;;;7.14;79.91;102395.50;4984270;28;20042;-65
2022/03/15 09:16:05;;;;;;;18.00;7.80;;;;;;;7.23;80.74;102394.31;4984745;28;20039;-66
2022/03/15 09:18:31;;;;;;;13.68;7.72;;;;;;;7.30;79.13;102401.25;4979104;28;20031;-70
2022/03/15 09:20:56;;;;;;;14.65;7.82;;;;;;;7.36;78.52;102401.03;4988196;28;20045;-66
2022/03/15 09:23:22;;;;;;;12.85;7.43;;;;;;;7.43;77.68;102406.28;5008683;28;20029;-66
2022/03/15 09:25:49;;;;;;;12.07;7.03;;;;;;;7.47;77.77;102405.22;4998788;28;20034;-71
2022/03/15 09:28:16;;;;;;;14.10;8.48;;;;;;;7.51;77.01;102407.78;4976608;28;20429;-65
2022/03/15 09:30:41;;;;;;;16.15;7.57;;;;;;;7.59;77.56;102407.50;5000366;28;20037;-71
2022/03/15 09:33:07;;;;;;;17.23;7.88;;;;;;;7.66;79.16;102409.94;5003007;28;20044;-64
2022/03/15 09:35:35;;;;;;;12.77;6.95;;;;;;;7.73;77.53;102407.88;4987566;28;20109;-66
2022/03/15 09:38:01;;;;;;;14.70;7.20;;;;;;;7.81;75.97;102413.03;5006914;28;20064;-70
2022/03/15 09:40:26;;;;;;;18.90;7.30;;;;;;;7.87;75.06;102404.69;4992885;28;20510;-70
2022/03/15 09:42:58;;;;;;;15.55;7.82;;;;;;;7.94;75.00;102403.53;4997408;28;20069;-66
2022/03/15 09:45:26;;;;;;;19.23;7.47;;;;;;;8.03;74.94;102407.75;5007818;28;20508;-69
2022/03/15 09:47:56;;;;;;;14.82;7.88;;;;;;;8.09;75.06;102402.09;5003071;28;20038;-70
2022/03/15 09:50:24;;;;;;;10.38;6.53;;;;;;;8.11;75.02;102405.63;4980042;28;20079;-69
2022/03/15 09:52:52;;;;;;;16.05;6.57;;;;;;;8.15;74.54;102407.28;5011615;28;20448;-71
2022/03/15 09:55:18;;;;;;;11.02;6.65;;;;;;;8.19;73.83;102395.38;4996106;28;20128;-65
2022/03/15 09:57:43;;;;;;;13.55;6.38;;;;;;;8.26;73.15;102396.03;4996072;28;20439;-70
2022/03/15 10:00:12;;;;;;;12.93;7.05;;;;;;;8.36;74.07;102397.47;5008184;28;20042;-66
2022/03/15 10:02:42;;;;;;;13.05;7.18;;;;;;;8.45;74.00;102393.53;5003986;28;20259;-65
2022/03/15 10:05:09;;;;;;;15.13;7.78;;;;;;;8.48;72.72;102386.16;5006244;28;20449;-71
2022/03/15 10:07:36;;;;;;;15.27;7.60;;;;;;;8.51;73.09;102390.59;5009636;28;20026;-65
2022/03/15 10:10:03;;;;;;;17.17;8.02;;;;;;;8.55;72.85;102384.09;5011294;28;20045;-64
2022/03/15 10:12:28;;;;;;;12.05;7.13;;;;;;;8.65;73.58;102377.34;5000875;28;20045;-66
2022/03/15 10:14:56;;;;;;;16.30;7.57;;;;;;;8.75;73.95;102377.88;5003145;28;20113;-68
2022/03/15 10:17:21;;;;;;;12.75;6.97;;;;;;;8.84;73.70;102381.09;4981901;28;20177;-70
2022/03/15 10:19:51;;;;;;;15.73;6.68;;;;;;;8.88;72.86;102369.19;4993495;28;20756;-70
2022/03/15 10:22:23;;;;;;;14.27;7.13;;;;;;;8.91;72.27;102376.31;5006320;28;20548;-71
2022/03/15 10:24:49;;;;;;;14.60;6.93;;;;;;;8.99;74.12;102371.44;5010476;28;20041;-64
2022/03/15 10:27:15;;;;;;;16.95;6.45;;;;;;;9.06;72.36;102362.09;5004942;28;20045;-68
2022/03/15 10:29:43;;;;;;;13.40;7.65;;;;;;;9.16;72.69;102362.59;4995103;28;20076;-69
2022/03/15 10:32:09;;;;;;;16.98;7.90;;;;;;;9.25;72.40;102361.34;4990321;28;20612;-70
2022/03/15 10:34:36;;;;;;;11.20;6.53;;;;;;;9.29;70.48;102358.41;4976790;28;20082;-69
2022/03/15 10:37:02;;;;;;;15.45;6.85;;;;;;;9.35;72.09;102351.84;5010713;28;20037;-70
2022/03/15 10:39:27;;;;;;;13.07;7.53;;;;;;;9.44;72.18;102352.31;5010658;28;20029;-66
2022/03/15 10:42:01;;;;;;;13.73;7.20;;;;;;;9.54;71.90;102349.19;4999381;28;20359;-71
2022/03/15 10:44:30;;;;;;;14.10;6.85;;;;;;;9.63;72.20;102344.25;5010723;28;20113;-66
2022/03/15 10:47:04;;;;;;;13.27;7.40;;;;;;;9.75;73.04;102342.81;5004278;28;20033;-66
2022/03/15 10:49:31;;;;;;;13.80;8.10;;;;;;;9.82;72.87;102333.44;4985762;28;20045;-70
2022/03/15 10:51:56;;;;;;;16.90;7.40;;;;;;;9.88;71.46;102333.13;5008416;28;20034;-65
2022/03/15 10:54:25;;;;;;;13.98;6.82;;;;;;;9.90;71.70;102333.97;4991409;28;20037;-69
2022/03/15 10:56:55;;;;;;;15.20;7.38;;;;;;;9.97;70.43;102335.44;4991007;28;20494;-65
2022/03/15 10:59:22;;;;;;;15.38;7.53;;;;;;;10.05;69.42;102321.50;5006760;28;20422;-71
2022/03/15 11:01:48;;;;;;;16.92;6.63;;;;;;;10.11;70.65;102329.34;4996069;28;20026;-65
2022/03/15 11:04:14;;;;;;;10.93;6.88;;;;;;;10.19;71.08;102332.59;5006264;28;20038;-64
2022/03/15 11:06:43;;;;;;;12.80;6.15;;;;;;;10.27;69.84;102326.84;5009654;28;20042;-69
2022/03/15 11:09:15;;;;;;;13.13;6.47;;;;;;;10.30;69.16;102326.69;5009077;28;20572;-66
2022/03/15 11:11:40;;;;;;;15.35;6.80;;;;;;;10.34;69.65;102327.44;4991321;28;20109;-69
2022/03/15 11:14:06;;;;;;;17.60;6.80;;;;;;;10.34;70.05;102319.25;4988861;28;20046;-65
2022/03/15 11:16:36;;;;;;;12.48;6.22;;;;;;;10.35;69.51;102321.94;4987102;28;20411;-71